sensor_id;sensor_type;location;lat;lon;timestamp;P1;durP1;ratioP1;P2;durP2;ratioP2
37873;SDS011;23709;48.078;11.684;2024-01-30T05:41:44;6.35;;;3.55;;
37873;SDS011;23709;48.078;11.684;2024-01-30T05:44:17;5.15;;;3.08;;
37873;SDS011;23709;48.078;11.684;2024-01-30T05:46:49;9.57;;;3.78;;
37873;SDS011;23709;48.078;11.684;2024-01-30T05:49:21;8.88;;;3.38;;
37873;SDS011;23709;48.078;11.684;2024-01-30T05:51:53;10.98;;;3.67;;
37873;SDS011;23709;48.078;11.684;2024-01-30T05:54:27;13.30;;;4.07;;
37873;SDS011;23709;48.078;11.684;2024-01-30T05:56:59;15.30;;;3.92;;
37873;SDS011;23709;48.078;11.684;2024-01-30T05:59:32;12.85;;;4.05;;
37873;SDS011;23709;48.078;11.684;2024-01-30T06:02:04;8.40;;;3.90;;
37873;SDS011;23709;48.078;11.684;2024-01-30T06:04:37;9.63;;;3.58;;
37873;SDS011;23709;48.078;11.684;2024-01-30T06:07:10;6.85;;;3.85;;
37873;SDS011;23709;48.078;11.684;2024-01-30T06:09:42;5.28;;;3.40;;
37873;SDS011;23709;48.078;11.684;2024-01-30T06:12:15;8.45;;;3.97;;
37873;SDS011;23709;48.078;11.684;2024-01-30T06:14:47;7.72;;;3.47;;
37873;SDS011;23709;48.078;11.684;2024-01-30T06:17:20;10.53;;;4.23;;
37873;SDS011;23709;48.078;11.684;2024-01-30T06:19:52;12.10;;;4.35;;
37873;SDS011;23709;48.078;11.684;2024-01-30T06:22:24;6.68;;;4.05;;
37873;SDS011;23709;48.078;11.684;2024-01-30T06:24:57;6.13;;;3.67;;
37873;SDS011;23709;48.078;11.684;2024-01-30T06:27:29;7.75;;;4.70;;
37873;SDS011;23709;48.078;11.684;2024-01-30T06:30:02;9.93;;;5.03;;
37873;SDS011;23709;48.078;11.684;2024-01-30T06:32:35;7.70;;;4.40;;
37873;SDS011;23709;48.078;11.684;2024-01-30T06:35:08;12.80;;;5.40;;
37873;SDS011;23709;48.078;11.684;2024-01-30T06:37:42;11.60;;;4.63;;
37873;SDS011;23709;48.078;11.684;2024-01-30T06:40:14;13.07;;;4.60;;
37873;SDS011;23709;48.078;11.684;2024-01-30T06:42:47;15.82;;;5.30;;
37873;SDS011;23709;48.078;11.684;2024-01-30T06:45:19;9.93;;;5.47;;
37873;SDS011;23709;48.078;11.684;2024-01-30T06:47:51;10.68;;;4.95;;
37873;SDS011;23709;48.078;11.684;2024-01-30T06:50:24;9.55;;;4.93;;
37873;SDS011;23709;48.078;11.684;2024-01-30T06:52:56;10.00;;;5.78;;
37873;SDS011;23709;48.078;11.684;2024-01-30T06:55:28;14.55;;;4.90;;
37873;SDS011;23709;48.078;11.684;2024-01-30T06:58:01;9.70;;;5.40;;
37873;SDS011;23709;48.078;11.684;2024-01-30T07:00:33;12.30;;;5.63;;
37873;SDS011;23709;48.078;11.684;2024-01-30T07:03:06;9.18;;;4.90;;
37873;SDS011;23709;48.078;11.684;2024-01-30T07:05:38;11.50;;;5.10;;
37873;SDS011;23709;48.078;11.684;2024-01-30T07:08:10;10.38;;;5.72;;
37873;SDS011;23709;48.078;11.684;2024-01-30T07:10:43;16.90;;;6.07;;
37873;SDS011;23709;48.078;11.684;2024-01-30T07:13:15;10.05;;;5.78;;
37873;SDS011;23709;48.078;11.684;2024-01-30T07:15:48;11.57;;;5.20;;
37873;SDS011;23709;48.078;11.684;2024-01-30T07:18:21;12.38;;;5.32;;
37873;SDS011;23709;48.078;11.684;2024-01-30T07:20:53;12.63;;;6.93;;
37873;SDS011;23709;48.078;11.684;2024-01-30T07:23:25;10.07;;;5.82;;
37873;SDS011;23709;48.078;11.684;2024-01-30T07:25:58;10.90;;;5.55;;
37873;SDS011;23709;48.078;11.684;2024-01-30T15:37:05;22.23;;;4.85;;
37873;SDS011;23709;48.078;11.684;2024-01-30T15:39:41;18.15;;;4.53;;
37873;SDS011;23709;48.078;11.684;2024-01-30T15:42:13;16.15;;;4.47;;
37873;SDS011;23709;48.078;11.684;2024-01-30T15:44:45;18.95;;;4.65;;
37873;SDS011;23709;48.078;11.684;2024-01-30T15:47:17;24.58;;;4.68;;
37873;SDS011;23709;48.078;11.684;2024-01-30T15:49:50;14.05;;;4.25;;
37873;SDS011;23709;48.078;11.684;2024-01-30T15:52:23;16.53;;;3.47;;
37873;SDS011;23709;48.078;11.684;2024-01-30T15:54:55;13.07;;;3.78;;
37873;SDS011;23709;48.078;11.684;2024-01-30T15:57:27;14.77;;;4.07;;
37873;SDS011;23709;48.078;11.684;2024-01-30T16:00:01;11.40;;;3.58;;
37873;SDS011;23709;48.078;11.684;2024-01-30T16:02:41;15.13;;;3.40;;
37873;SDS011;23709;48.078;11.684;2024-01-30T16:05:21;16.42;;;3.63;;
37873;SDS011;23709;48.078;11.684;2024-01-30T16:10:27;7.82;;;3.22;;
37873;SDS011;23709;48.078;11.684;2024-01-30T16:13:03;12.50;;;3.90;;
37873;SDS011;23709;48.078;11.684;2024-01-30T16:15:37;16.90;;;3.90;;
37873;SDS011;23709;48.078;11.684;2024-01-30T16:18:16;18.02;;;4.70;;
37873;SDS011;23709;48.078;11.684;2024-01-30T16:20:48;10.30;;;4.25;;
37873;SDS011;23709;48.078;11.684;2024-01-30T16:25:54;21.55;;;4.60;;
37873;SDS011;23709;48.078;11.684;2024-01-30T16:28:26;14.23;;;4.50;;
37873;SDS011;23709;48.078;11.684;2024-01-30T16:31:00;14.23;;;4.82;;
37873;SDS011;23709;48.078;11.684;2024-01-30T16:33:39;12.60;;;4.32;;
37873;SDS011;23709;48.078;11.684;2024-01-30T16:36:18;14.70;;;6.00;;
37873;SDS011;23709;48.078;11.684;2024-01-30T16:38:57;14.07;;;5.68;;
37873;SDS011;23709;48.078;11.684;2024-01-30T16:41:40;18.52;;;5.20;;
37873;SDS011;23709;48.078;11.684;2024-01-30T16:44:19;24.13;;;5.35;;
37873;SDS011;23709;48.078;11.684;2024-01-30T16:46:57;19.85;;;7.05;;
37873;SDS011;23709;48.078;11.684;2024-01-30T16:49:34;25.30;;;8.25;;
37873;SDS011;23709;48.078;11.684;2024-01-30T16:52:12;14.13;;;5.65;;
37873;SDS011;23709;48.078;11.684;2024-01-30T16:54:49;25.98;;;6.00;;
37873;SDS011;23709;48.078;11.684;2024-01-30T16:57:21;29.08;;;8.50;;
37873;SDS011;23709;48.078;11.684;2024-01-30T16:59:53;18.35;;;7.57;;
37873;SDS011;23709;48.078;11.684;2024-01-30T17:02:31;25.33;;;6.88;;
37873;SDS011;23709;48.078;11.684;2024-01-30T17:05:09;13.98;;;6.63;;
37873;SDS011;23709;48.078;11.684;2024-01-30T17:07:56;19.23;;;6.85;;
37873;SDS011;23709;48.078;11.684;2024-01-30T17:10:29;32.78;;;8.45;;
37873;SDS011;23709;48.078;11.684;2024-01-30T17:13:10;24.92;;;11.13;;
37873;SDS011;23709;48.078;11.684;2024-01-30T17:15:47;28.25;;;11.23;;
37873;SDS011;23709;48.078;11.684;2024-01-30T17:18:21;40.00;;;18.27;;
37873;SDS011;23709;48.078;11.684;2024-01-30T17:20:55;32.67;;;14.63;;
37873;SDS011;23709;48.078;11.684;2024-01-30T17:23:30;20.27;;;10.10;;
37873;SDS011;23709;48.078;11.684;2024-01-30T17:26:05;31.88;;;11.68;;
37873;SDS011;23709;48.078;11.684;2024-01-30T17:28:44;26.10;;;11.82;;
37873;SDS011;23709;48.078;11.684;2024-01-30T17:31:22;35.78;;;14.65;;
37873;SDS011;23709;48.078;11.684;2024-01-30T17:33:57;38.67;;;21.08;;
37873;SDS011;23709;48.078;11.684;2024-01-30T17:36:32;36.25;;;16.85;;
37873;SDS011;23709;48.078;11.684;2024-01-30T17:39:10;37.47;;;16.90;;
37873;SDS011;23709;48.078;11.684;2024-01-30T17:41:44;40.65;;;17.35;;
37873;SDS011;23709;48.078;11.684;2024-01-30T17:44:22;36.83;;;18.52;;
37873;SDS011;23709;48.078;11.684;2024-01-30T17:46:57;45.72;;;25.80;;
37873;SDS011;23709;48.078;11.684;2024-01-30T17:49:33;41.97;;;20.50;;
37873;SDS011;23709;48.078;11.684;2024-01-30T17:52:11;119.18;;;29.75;;
37873;SDS011;23709;48.078;11.684;2024-01-30T17:54:44;76.93;;;26.90;;
37873;SDS011;23709;48.078;11.684;2024-01-30T17:57:17;46.70;;;22.10;;
37873;SDS011;23709;48.078;11.684;2024-01-30T17:59:49;46.50;;;22.27;;
37873;SDS011;23709;48.078;11.684;2024-01-30T18:02:23;53.65;;;28.10;;
37873;SDS011;23709;48.078;11.684;2024-01-30T18:04:57;39.50;;;22.58;;
37873;SDS011;23709;48.078;11.684;2024-01-30T18:07:31;43.83;;;23.25;;
37873;SDS011;23709;48.078;11.684;2024-01-30T18:10:07;40.60;;;21.65;;
37873;SDS011;23709;48.078;11.684;2024-01-30T18:12:40;41.95;;;22.98;;
37873;SDS011;23709;48.078;11.684;2024-01-30T18:15:13;41.25;;;20.20;;
37873;SDS011;23709;48.078;11.684;2024-01-30T18:17:46;35.60;;;19.25;;
37873;SDS011;23709;48.078;11.684;2024-01-30T18:20:18;40.08;;;17.52;;
37873;SDS011;23709;48.078;11.684;2024-01-30T18:22:51;32.08;;;16.67;;
37873;SDS011;23709;48.078;11.684;2024-01-30T18:25:23;31.30;;;16.37;;
37873;SDS011;23709;48.078;11.684;2024-01-30T18:27:56;34.50;;;15.23;;
37873;SDS011;23709;48.078;11.684;2024-01-30T18:30:28;41.60;;;17.63;;
37873;SDS011;23709;48.078;11.684;2024-01-30T18:33:00;39.63;;;16.33;;
37873;SDS011;23709;48.078;11.684;2024-01-30T18:35:34;34.20;;;15.95;;
37873;SDS011;23709;48.078;11.684;2024-01-30T18:38:07;40.55;;;17.35;;
37873;SDS011;23709;48.078;11.684;2024-01-30T18:40:39;37.05;;;18.33;;
37873;SDS011;23709;48.078;11.684;2024-01-30T18:43:12;48.25;;;22.58;;
37873;SDS011;23709;48.078;11.684;2024-01-30T18:45:50;46.83;;;21.85;;
37873;SDS011;23709;48.078;11.684;2024-01-30T18:48:25;39.75;;;20.42;;
37873;SDS011;23709;48.078;11.684;2024-01-30T18:50:58;39.42;;;19.50;;
37873;SDS011;23709;48.078;11.684;2024-01-30T18:53:31;43.05;;;21.88;;
37873;SDS011;23709;48.078;11.684;2024-01-30T18:56:04;46.00;;;22.37;;
37873;SDS011;23709;48.078;11.684;2024-01-30T18:58:37;39.75;;;20.88;;
37873;SDS011;23709;48.078;11.684;2024-01-30T19:01:09;41.00;;;18.85;;
37873;SDS011;23709;48.078;11.684;2024-01-30T19:03:42;32.25;;;17.25;;
37873;SDS011;23709;48.078;11.684;2024-01-30T19:06:15;36.95;;;17.95;;
37873;SDS011;23709;48.078;11.684;2024-01-30T19:08:47;37.05;;;17.90;;
37873;SDS011;23709;48.078;11.684;2024-01-30T19:11:19;35.95;;;18.77;;
37873;SDS011;23709;48.078;11.684;2024-01-30T19:13:52;31.48;;;15.70;;
37873;SDS011;23709;48.078;11.684;2024-01-30T19:16:25;37.20;;;17.20;;
37873;SDS011;23709;48.078;11.684;2024-01-30T19:18:57;36.93;;;18.63;;
37873;SDS011;23709;48.078;11.684;2024-01-30T19:21:30;41.20;;;17.23;;
37873;SDS011;23709;48.078;11.684;2024-01-30T19:24:03;43.55;;;17.98;;
37873;SDS011;23709;48.078;11.684;2024-01-30T19:26:36;39.95;;;14.88;;
37873;SDS011;23709;48.078;11.684;2024-01-30T19:29:10;33.53;;;16.48;;
37873;SDS011;23709;48.078;11.684;2024-01-30T19:31:43;35.72;;;14.65;;
37873;SDS011;23709;48.078;11.684;2024-01-30T19:34:20;35.28;;;13.20;;
37873;SDS011;23709;48.078;11.684;2024-01-30T19:36:57;32.42;;;14.15;;
37873;SDS011;23709;48.078;11.684;2024-01-30T19:39:29;31.57;;;15.73;;
37873;SDS011;23709;48.078;11.684;2024-01-30T19:42:01;41.90;;;13.93;;
37873;SDS011;23709;48.078;11.684;2024-01-30T19:44:34;29.65;;;13.65;;
37873;SDS011;23709;48.078;11.684;2024-01-30T19:47:06;38.17;;;15.13;;
37873;SDS011;23709;48.078;11.684;2024-01-30T19:49:41;40.55;;;17.00;;
37873;SDS011;23709;48.078;11.684;2024-01-30T19:52:13;34.33;;;16.35;;
37873;SDS011;23709;48.078;11.684;2024-01-30T19:54:46;33.00;;;16.63;;
37873;SDS011;23709;48.078;11.684;2024-01-30T19:57:18;36.10;;;15.23;;
37873;SDS011;23709;48.078;11.684;2024-01-30T19:59:52;34.60;;;16.25;;
37873;SDS011;23709;48.078;11.684;2024-01-30T20:02:25;32.83;;;15.18;;
37873;SDS011;23709;48.078;11.684;2024-01-30T20:04:57;48.17;;;14.68;;
37873;SDS011;23709;48.078;11.684;2024-01-30T20:07:31;37.88;;;16.42;;
37873;SDS011;23709;48.078;11.684;2024-01-30T20:10:03;36.17;;;15.40;;
37873;SDS011;23709;48.078;11.684;2024-01-30T20:12:36;38.53;;;19.23;;
37873;SDS011;23709;48.078;11.684;2024-01-30T20:15:13;43.75;;;19.33;;
37873;SDS011;23709;48.078;11.684;2024-01-30T20:17:46;38.08;;;17.63;;
37873;SDS011;23709;48.078;11.684;2024-01-30T20:20:19;51.10;;;19.05;;
37873;SDS011;23709;48.078;11.684;2024-01-30T20:22:52;43.80;;;17.13;;
37873;SDS011;23709;48.078;11.684;2024-01-30T20:25:24;37.95;;;18.23;;
37873;SDS011;23709;48.078;11.684;2024-01-30T20:27:56;36.95;;;17.65;;
37873;SDS011;23709;48.078;11.684;2024-01-30T20:30:29;38.08;;;15.50;;
37873;SDS011;23709;48.078;11.684;2024-01-30T20:33:02;48.63;;;16.20;;
37873;SDS011;23709;48.078;11.684;2024-01-30T20:35:34;37.63;;;14.85;;
37873;SDS011;23709;48.078;11.684;2024-01-30T20:38:07;33.67;;;15.10;;
37873;SDS011;23709;48.078;11.684;2024-01-30T20:40:39;34.88;;;14.75;;
37873;SDS011;23709;48.078;11.684;2024-01-30T20:43:11;33.97;;;15.82;;
37873;SDS011;23709;48.078;11.684;2024-01-30T20:45:44;35.05;;;16.80;;
37873;SDS011;23709;48.078;11.684;2024-01-30T20:48:16;32.38;;;16.00;;
37873;SDS011;23709;48.078;11.684;2024-01-30T20:50:49;38.88;;;17.17;;
37873;SDS011;23709;48.078;11.684;2024-01-30T20:53:21;36.92;;;16.58;;
37873;SDS011;23709;48.078;11.684;2024-01-30T20:55:53;37.00;;;16.90;;
37873;SDS011;23709;48.078;11.684;2024-01-30T20:58:25;36.67;;;16.92;;
37873;SDS011;23709;48.078;11.684;2024-01-30T21:01:00;41.83;;;17.25;;
37873;SDS011;23709;48.078;11.684;2024-01-30T21:03:32;42.20;;;17.33;;
37873;SDS011;23709;48.078;11.684;2024-01-30T21:06:04;37.92;;;18.80;;
37873;SDS011;23709;48.078;11.684;2024-01-30T21:08:39;37.38;;;19.38;;
37873;SDS011;23709;48.078;11.684;2024-01-30T21:11:13;34.05;;;16.33;;
37873;SDS011;23709;48.078;11.684;2024-01-30T21:13:46;39.80;;;17.10;;
37873;SDS011;23709;48.078;11.684;2024-01-30T21:16:18;40.83;;;16.15;;
37873;SDS011;23709;48.078;11.684;2024-01-30T21:18:50;35.85;;;15.55;;
